Time;durP1;ratioP1;P1;durP2;ratioP2;P2;SDS_P1;SDS_P2;PMS_P1;PMS_P2;Temp;Humidity;BMP_temperature;BMP_pressure;BME280_temperature;BME280_humidity;BME280_pressure;Samples;Min_cycle;Max_cycle;Signal;HPM_P1;HPM_P2
2022/02/15 00:01:09;;;;;;;15.35;2.00;;;4.50;99.90;;;;;;6279750;22;20011;-91
2022/02/15 00:03:35;;;;;;;12.73;2.65;;;4.40;99.90;;;;;;6307744;22;20422;-92
2022/02/15 00:06:01;;;;;;;16.00;2.20;;;4.40;99.90;;;;;;6280351;22;20423;-92
2022/02/15 00:08:26;;;;;;;16.65;2.70;;;4.40;99.90;;;;;;6280287;22;20391;-89
2022/02/15 00:10:52;;;;;;;8.57;2.08;;;4.40;99.90;;;;;;6280511;22;20062;-90
2022/02/15 00:13:18;;;;;;;8.15;1.73;;;4.40;99.90;;;;;;6280338;22;20007;-90
2022/02/15 00:15:44;;;;;;;12.85;2.30;;;4.30;99.90;;;;;;6280165;22;20007;-90
2022/02/15 00:18:10;;;;;;;15.02;2.08;;;4.30;99.90;;;;;;6280822;22;20492;-90
2022/02/15 00:20:36;;;;;;;10.00;2.50;;;4.30;99.90;;;;;;6280453;22;20026;-90
2022/02/15 00:23:02;;;;;;;14.15;2.15;;;4.20;99.90;;;;;;6284914;22;20000;-93
2022/02/15 00:25:27;;;;;;;11.80;1.80;;;4.20;99.90;;;;;;6279907;22;20004;-92
2022/02/15 00:27:53;;;;;;;12.48;1.67;;;4.10;99.90;;;;;;6280867;22;20055;-92
2022/02/15 00:30:20;;;;;;;13.00;2.00;;;4.10;99.90;;;;;;6307490;22;20006;-92
2022/02/15 00:32:46;;;;;;;11.68;1.70;;;4.10;99.90;;;;;;6280667;22;20113;-92
2022/02/15 00:35:12;;;;;;;11.38;2.15;;;4.00;99.90;;;;;;6280286;22;20012;-93
2022/02/15 00:37:38;;;;;;;14.60;2.90;;;4.00;99.90;;;;;;6280366;22;20086;-91
2022/02/15 00:40:05;;;;;;;16.38;2.85;;;4.00;99.90;;;;;;6280872;22;20371;-90
2022/02/15 00:42:31;;;;;;;21.58;4.47;;;3.90;99.90;;;;;;6279966;22;20418;-92
2022/02/15 00:44:57;;;;;;;11.80;1.33;;;3.80;99.90;;;;;;6280231;22;20007;-92
2022/02/15 00:47:22;;;;;;;9.45;1.88;;;3.80;99.90;;;;;;6280181;22;20469;-92
2022/02/15 00:49:48;;;;;;;12.15;1.52;;;3.80;99.90;;;;;;6280217;22;20007;-92
2022/02/15 00:52:14;;;;;;;9.40;2.40;;;3.80;99.90;;;;;;6280094;22;20014;-91
2022/02/15 00:54:39;;;;;;;10.73;1.50;;;3.80;99.90;;;;;;6280240;22;20126;-94
2022/02/15 00:57:05;;;;;;;9.73;2.15;;;3.80;99.90;;;;;;6280376;22;20007;-92
2022/02/15 00:59:31;;;;;;;10.77;1.40;;;3.70;99.90;;;;;;6279996;22;20030;-92
2022/02/15 01:01:57;;;;;;;11.63;1.50;;;3.70;99.90;;;;;;6281562;22;20003;-92
2022/02/15 01:04:22;;;;;;;10.23;1.70;;;3.70;99.90;;;;;;6282751;22;20069;-92
2022/02/15 01:06:48;;;;;;;9.82;1.88;;;3.70;99.90;;;;;;6281498;22;20026;-93
2022/02/15 01:09:14;;;;;;;13.68;1.75;;;3.70;99.90;;;;;;6280215;22;20007;-92
2022/02/15 01:11:39;;;;;;;13.40;1.60;;;3.70;99.90;;;;;;6280417;22;20003;-92
2022/02/15 01:14:06;;;;;;;17.42;2.30;;;3.70;99.90;;;;;;6281933;22;19999;-91
2022/02/15 01:16:31;;;;;;;9.05;1.55;;;3.70;99.90;;;;;;6282169;22;20056;-92
2022/02/15 01:18:57;;;;;;;9.55;1.70;;;3.70;99.90;;;;;;6282036;22;19999;-92
2022/02/15 01:21:23;;;;;;;13.63;2.28;;;3.70;99.90;;;;;;6281544;22;20006;-92
2022/02/15 01:23:49;;;;;;;10.00;2.63;;;3.70;99.90;;;;;;6281846;22;20007;-91
2022/02/15 01:26:15;;;;;;;16.13;1.90;;;3.80;99.90;;;;;;6281987;22;20451;-92
2022/02/15 01:28:40;;;;;;;10.95;2.00;;;3.80;99.90;;;;;;6282125;22;20003;-91
2022/02/15 01:31:08;;;;;;;17.77;2.70;;;3.80;99.90;;;;;;6281839;22;20038;-92
2022/02/15 01:33:34;;;;;;;17.15;2.70;;;3.80;99.90;;;;;;6281478;22;20003;-90
2022/02/15 01:36:00;;;;;;;17.63;5.03;;;3.80;99.90;;;;;;6281831;22;20016;-90
2022/02/15 01:38:27;;;;;;;12.57;3.58;;;3.90;99.90;;;;;;6281773;22;20006;-91
2022/02/15 01:40:52;;;;;;;8.35;3.75;;;3.80;99.90;;;;;;6281527;22;20007;-90
2022/02/15 01:43:18;;;;;;;9.57;4.40;;;3.90;99.90;;;;;;6281391;22;20026;-91
2022/02/15 01:45:44;;;;;;;15.07;3.63;;;3.80;99.90;;;;;;6282161;22;20007;-91
2022/02/15 01:48:10;;;;;;;12.32;4.28;;;3.80;99.90;;;;;;6282035;22;20011;-90
2022/02/15 01:50:35;;;;;;;17.23;4.20;;;3.80;99.90;;;;;;6281888;22;20003;-93
2022/02/15 01:53:01;;;;;;;19.08;3.75;;;3.80;99.90;;;;;;6282059;22;20427;-92
2022/02/15 01:55:27;;;;;;;12.32;4.03;;;3.80;99.90;;;;;;6282069;22;20007;-93
2022/02/15 01:57:53;;;;;;;12.45;2.97;;;3.70;99.90;;;;;;6281713;22;20003;-91
2022/02/15 02:00:20;;;;;;;9.02;2.60;;;3.70;99.90;;;;;;6281702;22;20029;-93
2022/02/15 02:02:46;;;;;;;12.38;3.30;;;3.70;99.90;;;;;;6282183;22;20330;-92
2022/02/15 02:07:57;;;;;;;9.50;2.58;;;3.70;99.90;;;;;;6310724;22;20041;-94
2022/02/15 02:10:23;;;;;;;8.82;2.50;;;3.60;99.90;;;;;;6282007;22;20082;-92
2022/02/15 02:12:49;;;;;;;7.05;2.08;;;3.60;99.90;;;;;;6280874;22;20011;-91
2022/02/15 02:15:22;;;;;;;11.88;2.60;;;3.60;99.90;;;;;;6281402;22;20007;-92
2022/02/15 02:17:48;;;;;;;8.07;1.80;;;3.60;99.90;;;;;;6280820;22;20011;-93
2022/02/15 02:20:15;;;;;;;8.63;2.13;;;3.60;99.90;;;;;;6280806;22;20144;-92
2022/02/15 02:22:40;;;;;;;8.45;1.90;;;3.50;99.90;;;;;;6280529;22;19999;-94
2022/02/15 02:25:07;;;;;;;12.93;1.70;;;3.50;99.90;;;;;;6280983;22;20011;-92
2022/02/15 02:27:33;;;;;;;10.57;2.53;;;3.50;99.90;;;;;;6280695;22;20014;-93
2022/02/15 02:30:00;;;;;;;8.73;1.85;;;3.50;99.90;;;;;;6280743;22;20090;-92
2022/02/15 02:32:28;;;;;;;5.50;1.67;;;3.40;99.90;;;;;;6280621;22;20061;-91
2022/02/15 02:34:55;;;;;;;10.35;1.92;;;3.40;99.90;;;;;;6281042;22;20152;-92
2022/02/15 02:37:21;;;;;;;7.50;1.50;;;3.40;99.90;;;;;;6281322;22;20027;-92
2022/02/15 02:39:49;;;;;;;8.15;1.30;;;3.30;99.90;;;;;;6280867;22;20057;-92
2022/02/15 02:42:19;;;;;;;8.30;1.65;;;3.30;99.90;;;;;;6281200;22;20104;-92
2022/02/15 02:44:46;;;;;;;4.95;1.00;;;3.30;99.90;;;;;;6281273;22;20010;-92
2022/02/15 02:47:12;;;;;;;4.68;1.98;;;3.20;99.90;;;;;;6281532;22;20007;-89
2022/02/15 02:49:38;;;;;;;11.82;1.67;;;3.20;99.90;;;;;;6281466;22;20007;-89
2022/02/15 02:52:05;;;;;;;9.88;1.20;;;3.10;99.90;;;;;;6281060;22;20326;-91
2022/02/15 02:54:31;;;;;;;7.80;1.02;;;3.20;99.90;;;;;;6281341;22;20007;-90
2022/02/15 02:57:01;;;;;;;7.80;1.38;;;3.10;99.90;;;;;;6281755;22;20163;-91
2022/02/15 02:59:28;;;;;;;6.47;1.23;;;3.10;99.90;;;;;;6309525;22;19999;-91
2022/02/15 03:01:53;;;;;;;9.57;1.02;;;3.00;99.90;;;;;;6281525;22;20034;-91
2022/02/15 03:04:20;;;;;;;5.15;1.77;;;3.00;99.90;;;;;;6293862;22;20003;-92
2022/02/15 03:06:45;;;;;;;9.10;1.60;;;3.00;99.90;;;;;;6285140;22;20019;-92
2022/02/15 03:09:11;;;;;;;3.88;1.33;;;3.00;99.90;;;;;;6282574;22;20010;-91
2022/02/15 03:11:40;;;;;;;7.05;1.30;;;2.90;99.90;;;;;;6281898;22;20001;-91
2022/02/15 03:14:06;;;;;;;4.20;1.27;;;2.90;99.90;;;;;;6281633;22;20011;-92
2022/02/15 03:16:32;;;;;;;12.45;1.70;;;2.90;99.90;;;;;;6281435;22;20003;-91
2022/02/15 03:18:58;;;;;;;5.97;1.30;;;2.80;99.90;;;;;;6281089;22;20027;-90
2022/02/15 03:21:24;;;;;;;4.68;1.25;;;2.90;99.90;;;;;;6281237;22;20069;-91
2022/02/15 03:23:50;;;;;;;4.82;1.33;;;2.80;99.90;;;;;;6281174;22;20005;-91
2022/02/15 03:26:16;;;;;;;9.93;1.25;;;2.80;99.90;;;;;;6281057;22;20007;-92
2022/02/15 03:28:42;;;;;;;8.55;1.58;;;2.80;99.90;;;;;;6281021;22;20007;-91
2022/02/15 03:31:09;;;;;;;6.75;1.15;;;2.80;99.90;;;;;;6281193;22;20003;-93
2022/02/15 03:33:35;;;;;;;4.25;1.55;;;2.80;99.90;;;;;;6280745;22;20133;-91
2022/02/15 03:36:03;;;;;;;8.90;1.23;;;2.80;99.90;;;;;;6280856;22;20450;-92
2022/02/15 03:38:28;;;;;;;8.13;1.35;;;2.80;99.90;;;;;;6280797;22;19999;-92
2022/02/15 03:43:38;;;;;;;6.35;3.00;;;2.80;99.90;;;;;;6308166;22;20005;-91
2022/02/15 03:46:04;;;;;;;5.68;1.10;;;2.80;99.90;;;;;;6280933;22;20082;-90
2022/02/15 03:48:30;;;;;;;6.70;1.60;;;2.80;99.90;;;;;;6280983;22;20003;-91
2022/02/15 03:50:56;;;;;;;15.65;2.50;;;2.80;99.90;;;;;;6280459;22;20086;-91
2022/02/15 03:53:22;;;;;;;6.47;1.45;;;2.80;99.90;;;;;;6280550;22;20006;-90
2022/02/15 03:55:48;;;;;;;7.05;1.20;;;2.90;99.90;;;;;;6281745;22;20006;-93
2022/02/15 03:58:14;;;;;;;3.08;1.20;;;2.90;99.90;;;;;;6283248;22;20013;-92
2022/02/15 04:00:40;;;;;;;11.18;1.45;;;3.00;99.90;;;;;;6280725;22;19999;-90
2022/02/15 04:03:06;;;;;;;7.88;1.25;;;3.00;99.90;;;;;;6280856;22;20004;-91
2022/02/15 04:05:32;;;;;;;7.80;1.00;;;3.00;99.90;;;;;;6280691;22;20038;-89
2022/02/15 04:07:58;;;;;;;5.10;1.20;;;3.00;99.90;;;;;;6280446;22;20011;-91
2022/02/15 04:10:24;;;;;;;4.68;1.30;;;3.00;99.90;;;;;;6281096;22;20074;-93
2022/02/15 04:12:50;;;;;;;5.40;1.45;;;3.00;99.90;;;;;;6280624;22;20106;-91
2022/02/15 04:15:16;;;;;;;7.68;1.23;;;3.10;99.90;;;;;;6280755;22;20004;-92
2022/02/15 04:17:43;;;;;;;2.17;0.80;;;3.10;99.90;;;;;;6281392;22;20047;-92
2022/02/15 04:20:09;;;;;;;11.60;1.45;;;3.10;99.90;;;;;;6280196;22;20038;-89
2022/02/15 04:22:35;;;;;;;9.57;1.40;;;3.10;99.90;;;;;;6280335;22;20014;-90
2022/02/15 04:25:02;;;;;;;8.57;1.40;;;3.10;99.90;;;;;;6288305;22;20004;-92
2022/02/15 04:27:28;;;;;;;4.30;1.30;;;3.10;99.90;;;;;;6281566;22;20075;-91
2022/02/15 04:29:54;;;;;;;3.78;1.10;;;3.20;99.90;;;;;;6280926;22;20011;-91
2022/02/15 04:32:20;;;;;;;8.23;1.25;;;3.20;99.90;;;;;;6280852;22;20764;-91
2022/02/15 04:34:46;;;;;;;13.00;1.70;;;3.20;99.90;;;;;;6279983;22;20041;-92
2022/02/15 04:37:12;;;;;;;6.68;1.17;;;3.30;99.90;;;;;;6280320;22;20007;-92
2022/02/15 04:39:38;;;;;;;6.45;1.13;;;3.30;99.90;;;;;;6280289;22;20005;-92
2022/02/15 04:42:04;;;;;;;8.68;1.20;;;3.40;99.90;;;;;;6280168;22;20046;-90
2022/02/15 04:44:30;;;;;;;8.35;1.23;;;3.40;99.90;;;;;;6280193;22;20000;-92
2022/02/15 04:46:56;;;;;;;7.22;1.10;;;3.50;99.90;;;;;;6281608;22;20015;-92
2022/02/15 04:49:21;;;;;;;8.40;1.48;;;3.50;99.90;;;;;;6282463;22;20453;-92
2022/02/15 04:51:47;;;;;;;11.38;1.30;;;3.50;99.90;;;;;;6282340;22;20053;-91
2022/02/15 04:54:13;;;;;;;7.10;1.58;;;3.60;99.90;;;;;;6282088;22;20011;-91
2022/02/15 04:56:39;;;;;;;12.68;1.10;;;3.50;99.90;;;;;;6282043;22;20003;-91
2022/02/15 04:59:05;;;;;;;7.57;1.20;;;3.60;99.90;;;;;;6281857;22;20058;-90
2022/02/15 05:01:30;;;;;;;7.30;1.25;;;3.60;99.90;;;;;;6281675;22;20003;-92
2022/02/15 05:03:56;;;;;;;7.65;1.25;;;3.60;99.90;;;;;;6281250;22;20035;-92
2022/02/15 05:06:22;;;;;;;7.13;1.70;;;3.60;99.90;;;;;;6281402;22;20025;-91
2022/02/15 05:08:47;;;;;;;10.00;1.00;;;3.60;99.90;;;;;;6281719;22;20004;-91
2022/02/15 05:11:14;;;;;;;8.30;1.05;;;3.60;99.90;;;;;;6309203;22;19999;-92
2022/02/15 05:13:39;;;;;;;8.40;1.58;;;3.70;99.90;;;;;;6281558;22;20007;-91
2022/02/15 05:16:05;;;;;;;9.05;1.30;;;3.60;99.90;;;;;;6281816;22;20389;-92
2022/02/15 05:18:31;;;;;;;7.25;1.23;;;3.70;99.90;;;;;;6281756;22;20038;-93
2022/02/15 05:21:01;;;;;;;6.43;1.95;;;3.70;99.90;;;;;;6281949;22;20007;-92
2022/02/15 05:23:27;;;;;;;;;;;3.70;99.90;;;;;;6282369;22;20434;-91
2022/02/15 05:25:53;;;;;;;6.63;1.17;;;3.70;99.90;;;;;;6281737;22;19922;-91
2022/02/15 05:28:19;;;;;;;10.23;1.00;;;3.80;99.90;;;;;;6281782;22;20026;-91
2022/02/15 05:30:44;;;;;;;12.27;1.13;;;3.80;99.90;;;;;;6282126;22;20113;-92
2022/02/15 05:33:10;;;;;;;13.40;1.17;;;3.80;99.90;;;;;;6284045;22;20000;-92
2022/02/15 05:35:36;;;;;;;8.82;1.02;;;3.80;99.90;;;;;;6284774;22;20061;-92
2022/02/15 05:38:01;;;;;;;9.40;1.25;;;3.80;99.90;;;;;;6286416;22;20007;-92
2022/02/15 05:40:27;;;;;;;3.92;1.05;;;3.90;99.90;;;;;;6283782;22;20003;-92
2022/02/15 05:42:53;;;;;;;7.43;1.15;;;3.90;99.90;;;;;;6281794;22;20046;-92
2022/02/15 05:45:18;;;;;;;7.15;0.93;;;3.90;99.90;;;;;;6285613;22;19999;-91
2022/02/15 05:47:44;;;;;;;8.20;1.10;;;3.90;99.90;;;;;;6286138;22;20042;-92
2022/02/15 05:52:54;;;;;;;8.02;1.20;;;4.00;99.90;;;;;;6309197;22;20488;-92
2022/02/15 05:55:19;;;;;;;5.05;1.10;;;4.00;99.90;;;;;;6281308;22;20034;-92
2022/02/15 05:57:45;;;;;;;6.18;1.25;;;4.00;99.90;;;;;;6281039;22;20010;-92
2022/02/15 06:00:12;;;;;;;8.23;1.60;;;4.10;99.90;;;;;;6281557;22;20007;-94
2022/02/15 06:02:38;;;;;;;8.73;2.00;;;4.10;99.90;;;;;;6281611;22;20034;-92
2022/02/15 06:05:04;;;;;;;6.10;1.40;;;4.10;99.90;;;;;;6281187;22;20006;-92
2022/02/15 06:07:30;;;;;;;7.32;1.48;;;4.20;99.90;;;;;;6280570;22;20015;-93
2022/02/15 06:09:57;;;;;;;7.68;1.42;;;4.20;99.90;;;;;;6281594;22;20003;-93
2022/02/15 06:12:23;;;;;;;8.95;1.58;;;4.20;99.90;;;;;;6281793;22;20030;-93
2022/02/15 06:14:49;;;;;;;11.50;1.98;;;4.20;99.90;;;;;;6281067;22;19999;-92
2022/02/15 06:17:14;;;;;;;5.53;1.10;;;4.20;99.90;;;;;;6280861;22;20015;-92
2022/02/15 06:19:40;;;;;;;8.00;1.52;;;4.20;99.90;;;;;;6281280;22;20003;-90
2022/02/15 06:22:06;;;;;;;6.18;1.42;;;4.30;99.90;;;;;;6281277;22;20049;-92
2022/02/15 06:24:31;;;;;;;12.30;1.52;;;4.30;99.90;;;;;;6281575;22;20008;-92
2022/02/15 06:27:01;;;;;;;11.82;1.50;;;4.30;99.90;;;;;;6308419;22;20007;-91
2022/02/15 06:29:31;;;;;;;8.40;1.50;;;4.30;99.90;;;;;;6280916;22;20004;-92
2022/02/15 06:31:57;;;;;;;5.57;1.52;;;4.40;99.90;;;;;;6281219;22;20007;-92
2022/02/15 06:34:24;;;;;;;9.38;1.40;;;4.40;99.90;;;;;;6280645;22;20434;-91
2022/02/15 06:36:50;;;;;;;3.38;1.00;;;4.40;99.90;;;;;;6281037;22;20007;-93
2022/02/15 06:39:19;;;;;;;7.30;1.08;;;4.50;99.90;;;;;;6280593;22;20007;-91
2022/02/15 06:41:44;;;;;;;11.50;1.63;;;4.50;99.90;;;;;;6280873;22;20395;-91
2022/02/15 06:44:10;;;;;;;7.10;2.00;;;4.60;99.90;;;;;;6281070;22;19999;-93
2022/02/15 06:46:37;;;;;;;4.80;0.98;;;4.60;99.90;;;;;;6280640;22;20011;-92
2022/02/15 06:49:06;;;;;;;9.07;1.58;;;4.60;99.90;;;;;;6280802;22;20136;-90
2022/02/15 06:51:31;;;;;;;7.10;2.05;;;4.60;99.90;;;;;;6281490;22;20493;-91
2022/02/15 06:53:57;;;;;;;6.57;1.45;;;4.60;99.90;;;;;;6281613;22;20003;-91
2022/02/15 06:56:23;;;;;;;10.13;1.95;;;4.70;99.90;;;;;;6281737;22;20003;-91
2022/02/15 06:58:49;;;;;;;3.30;1.40;;;4.70;99.90;;;;;;6308975;22;19999;-90
2022/02/15 07:01:15;;;;;;;9.65;1.80;;;4.70;99.90;;;;;;6281496;22;20025;-91
2022/02/15 07:03:40;;;;;;;2.53;1.27;;;4.70;99.90;;;;;;6281922;22;20082;-91
2022/02/15 07:06:07;;;;;;;5.50;1.50;;;4.70;99.90;;;;;;6283211;22;20015;-91
2022/02/15 07:08:32;;;;;;;15.02;1.80;;;4.80;99.90;;;;;;6281551;22;20003;-91
2022/02/15 07:10:58;;;;;;;6.10;1.13;;;4.80;99.90;;;;;;6281696;22;20013;-88
2022/02/15 07:13:27;;;;;;;3.38;1.33;;;4.80;99.90;;;;;;6281267;22;20023;-89
2022/02/15 07:15:53;;;;;;;11.63;1.55;;;4.90;99.90;;;;;;6281625;22;20011;-91
2022/02/15 07:18:19;;;;;;;5.82;0.93;;;4.90;99.90;;;;;;6281282;22;20003;-90
2022/02/15 07:20:45;;;;;;;4.88;1.50;;;5.00;99.90;;;;;;6308547;22;20086;-90
2022/02/15 07:23:13;;;;;;;7.70;1.17;;;5.10;99.90;;;;;;6281080;22;20120;-91
2022/02/15 07:25:39;;;;;;;6.72;1.50;;;5.10;99.90;;;;;;6281188;22;20064;-91
2022/02/15 07:28:05;;;;;;;4.30;1.52;;;5.20;99.90;;;;;;6281555;22;20472;-90
2022/02/15 07:30:30;;;;;;;4.15;1.20;;;5.20;99.90;;;;;;6281206;22;20003;-90
2022/02/15 07:32:57;;;;;;;7.57;1.20;;;5.30;99.90;;;;;;6280893;22;20003;-90
2022/02/15 07:35:22;;;;;;;8.07;1.20;;;5.30;99.90;;;;;;6280723;22;20015;-90
2022/02/15 07:37:52;;;;;;;9.30;1.85;;;5.40;99.90;;;;;;6281061;22;20464;-90
2022/02/15 07:40:22;;;;;;;9.98;1.27;;;5.40;99.90;;;;;;6281849;22;20057;-90
2022/02/15 07:42:51;;;;;;;4.10;1.08;;;5.50;99.90;;;;;;6283222;22;20006;-90
2022/02/15 07:45:19;;;;;;;3.85;1.10;;;5.50;99.90;;;;;;6283007;22;20391;-92
2022/02/15 07:47:47;;;;;;;2.85;0.85;;;5.60;99.90;;;;;;6281310;22;20015;-89
2022/02/15 07:50:17;;;;;;;6.72;1.42;;;5.60;99.90;;;;;;6280396;22;19999;-91
2022/02/15 07:52:44;;;;;;;2.35;0.82;;;5.60;99.90;;;;;;6279719;22;19999;-92
2022/02/15 07:55:11;;;;;;;1.42;0.73;;;5.60;99.90;;;;;;6279477;22;20381;-92
2022/02/15 07:57:37;;;;;;;9.73;1.10;;;5.60;99.90;;;;;;6280069;22;20007;-90
2022/02/15 08:00:04;;;;;;;2.45;0.90;;;5.60;99.90;;;;;;6280537;22;20003;-91
2022/02/15 08:02:29;;;;;;;1.95;0.80;;;5.60;99.90;;;;;;6281003;22;20003;-90
2022/02/15 08:04:55;;;;;;;6.65;1.25;;;5.60;99.90;;;;;;6281502;22;20007;-91
2022/02/15 08:07:21;;;;;;;2.50;1.00;;;5.60;99.90;;;;;;6279532;22;20351;-90
2022/02/15 08:09:46;;;;;;;2.50;0.80;;;5.60;99.90;;;;;;6307460;22;19999;-90
2022/02/15 08:12:17;;;;;;;2.22;0.70;;;5.60;99.90;;;;;;6279507;22;20465;-90
2022/02/15 08:14:44;;;;;;;1.65;0.90;;;5.70;99.90;;;;;;6276352;22;20003;-91
2022/02/15 08:17:10;;;;;;;4.13;0.88;;;5.70;99.90;;;;;;6277567;22;20486;-92
2022/02/15 08:19:35;;;;;;;10.68;0.90;;;5.70;99.90;;;;;;6277682;22;20046;-91
2022/02/15 08:22:01;;;;;;;1.85;0.90;;;5.70;99.90;;;;;;6279516;22;20003;-93
2022/02/15 08:24:28;;;;;;;2.83;1.05;;;5.70;99.90;;;;;;6284663;22;20145;-91
2022/02/15 08:26:56;;;;;;;2.88;0.82;;;5.80;99.90;;;;;;6283624;22;20015;-93
2022/02/15 08:29:22;;;;;;;2.08;0.68;;;5.80;99.90;;;;;;6281799;22;20319;-93
2022/02/15 08:31:48;;;;;;;1.73;1.00;;;5.80;99.90;;;;;;6282108;22;20000;-91
2022/02/15 08:34:14;;;;;;;2.10;0.90;;;5.80;99.90;;;;;;6280704;22;20011;-93
2022/02/15 08:36:40;;;;;;;1.55;0.80;;;5.80;99.90;;;;;;6281561;22;20049;-92
2022/02/15 08:39:06;;;;;;;1.35;0.60;;;5.90;99.90;;;;;;6280179;22;20472;-91
2022/02/15 08:41:32;;;;;;;2.05;0.82;;;5.90;99.90;;;;;;6281118;22;20008;-92
2022/02/15 08:43:58;;;;;;;3.85;0.82;;;5.90;99.90;;;;;;6280296;22;20514;-92
2022/02/15 08:46:25;;;;;;;1.98;0.70;;;5.90;99.90;;;;;;6280688;22;20033;-91
2022/02/15 08:48:51;;;;;;;1.05;0.80;;;5.90;99.90;;;;;;6280760;22;20498;-92
2022/02/15 08:51:19;;;;;;;1.77;0.68;;;6.00;99.90;;;;;;6280523;22;20014;-93
2022/02/15 08:53:51;;;;;;;1.38;0.73;;;6.00;99.90;;;;;;6277079;22;20072;-92
2022/02/15 08:56:21;;;;;;;1.85;0.75;;;6.00;99.90;;;;;;6280550;22;20036;-91
2022/02/15 08:58:48;;;;;;;4.00;0.90;;;6.00;99.90;;;;;;6278227;22;20086;-94
2022/02/15 09:01:14;;;;;;;4.22;0.88;;;6.00;99.90;;;;;;6280077;22;20373;-93
2022/02/15 09:03:41;;;;;;;1.70;0.98;;;6.00;99.90;;;;;;6280857;22;20033;-93
2022/02/15 09:06:07;;;;;;;5.72;2.10;;;6.00;99.90;;;;;;6280587;22;20015;-94
2022/02/15 09:08:33;;;;;;;4.82;1.40;;;6.00;99.90;;;;;;6280508;22;20035;-94
2022/02/15 09:10:58;;;;;;;2.03;1.10;;;6.10;99.90;;;;;;6280748;22;20018;-93
2022/02/15 09:13:24;;;;;;;2.80;1.00;;;6.10;99.90;;;;;;6281310;22;20339;-92
2022/02/15 09:15:50;;;;;;;3.50;1.50;;;6.10;99.90;;;;;;6280929;22;20015;-92
2022/02/15 09:18:16;;;;;;;3.15;1.98;;;6.10;99.90;;;;;;6280121;22;20003;-93
2022/02/15 09:20:42;;;;;;;3.92;1.10;;;6.10;99.90;;;;;;6280377;22;20011;-91
2022/02/15 09:23:09;;;;;;;7.10;1.45;;;6.10;99.90;;;;;;6279645;22;20007;-92
2022/02/15 09:25:35;;;;;;;2.20;0.70;;;6.10;99.90;;;;;;6280479;22;20061;-91
2022/02/15 09:28:01;;;;;;;1.98;1.33;;;6.10;99.90;;;;;;6281794;22;20018;-92
2022/02/15 09:30:27;;;;;;;3.53;1.38;;;6.10;99.90;;;;;;6282606;22;20025;-94
2022/02/15 09:32:53;;;;;;;1.77;1.08;;;6.20;99.90;;;;;;6286229;22;20003;-93
2022/02/15 09:35:21;;;;;;;4.28;1.30;;;6.20;99.90;;;;;;6284191;22;20015;-93
2022/02/15 09:37:46;;;;;;;11.50;1.50;;;6.20;99.90;;;;;;6284725;22;20003;-92
2022/02/15 09:40:13;;;;;;;4.85;1.45;;;6.20;99.90;;;;;;6283536;22;20010;-92
2022/02/15 09:42:39;;;;;;;3.88;1.48;;;6.30;99.90;;;;;;6284388;22;19999;-92
2022/02/15 09:45:09;;;;;;;7.28;1.98;;;6.30;99.90;;;;;;6284429;22;20465;-95
2022/02/15 09:47:37;;;;;;;5.72;1.80;;;6.30;99.90;;;;;;6286484;22;20431;-94
2022/02/15 09:50:06;;;;;;;3.95;1.50;;;6.30;99.90;;;;;;6284315;22;20015;-95
2022/02/15 09:52:32;;;;;;;5.18;1.25;;;6.30;99.90;;;;;;6282844;22;20011;-93
2022/02/15 09:54:58;;;;;;;4.07;1.02;;;6.30;99.90;;;;;;6282572;22;20007;-94
2022/02/15 09:57:25;;;;;;;3.97;1.52;;;6.30;99.90;;;;;;6283417;22;20027;-93
2022/02/15 09:59:52;;;;;;;4.75;1.25;;;6.40;99.90;;;;;;6284766;22;20059;-93
2022/02/15 10:02:23;;;;;;;6.72;1.83;;;6.40;99.90;;;;;;6287161;22;20014;-94
2022/02/15 10:04:53;;;;;;;6.60;1.38;;;6.40;99.90;;;;;;6300046;22;19999;-92
2022/02/15 10:07:18;;;;;;;3.78;1.30;;;6.50;99.90;;;;;;6300482;22;20029;-93
2022/02/15 10:09:52;;;;;;;9.13;1.85;;;6.50;99.90;;;;;;6288768;22;20039;-92
2022/02/15 10:12:19;;;;;;;9.50;1.98;;;6.50;99.90;;;;;;6283252;22;20011;-92
2022/02/15 10:14:51;;;;;;;11.00;1.70;;;6.60;99.90;;;;;;6282676;22;20538;-93
2022/02/15 10:17:17;;;;;;;10.30;1.75;;;6.60;99.90;;;;;;6282041;22;20003;-92
2022/02/15 10:19:47;;;;;;;10.23;2.15;;;6.60;99.90;;;;;;6282020;22;20014;-91
2022/02/15 10:22:18;;;;;;;14.20;2.93;;;6.60;99.90;;;;;;6281842;22;20011;-93
2022/02/15 10:24:58;;;;;;;16.17;2.72;;;6.70;99.90;;;;;;6282838;22;20332;-94
2022/02/15 10:27:28;;;;;;;14.85;2.55;;;6.70;99.90;;;;;;6282879;22;20012;-93
2022/02/15 10:29:56;;;;;;;13.57;2.67;;;6.70;99.90;;;;;;6282662;22;19996;-94
2022/02/15 10:32:24;;;;;;;13.88;2.70;;;6.80;99.90;;;;;;6282002;22;20019;-94
2022/02/15 10:34:51;;;;;;;12.05;3.08;;;6.80;99.90;;;;;;6280001;22;20012;-93
2022/02/15 10:37:17;;;;;;;19.70;3.33;;;6.80;99.90;;;;;;6280550;22;20007;-91
2022/02/15 10:39:55;;;;;;;26.02;3.13;;;6.80;99.90;;;;;;6280658;22;20048;-90
2022/02/15 10:42:22;;;;;;;9.60;2.28;;;6.90;99.90;;;;;;6281222;22;20007;-91
2022/02/15 10:44:51;;;;;;;12.57;3.10;;;6.90;99.90;;;;;;6279756;22;19999;-91
2022/02/15 10:47:17;;;;;;;17.38;3.30;;;6.90;99.90;;;;;;6280724;22;20007;-92
2022/02/15 10:49:43;;;;;;;16.77;3.50;;;7.00;99.90;;;;;;6280912;22;20082;-91
2022/02/15 10:52:10;;;;;;;14.10;3.58;;;7.00;99.90;;;;;;6280372;22;20007;-91
2022/02/15 10:54:37;;;;;;;17.48;4.28;;;7.10;99.90;;;;;;6255539;22;20007;-90
2022/02/15 10:57:03;;;;;;;16.20;4.53;;;7.10;99.90;;;;;;6281136;22;20004;-91
2022/02/15 10:59:32;;;;;;;16.45;4.43;;;7.10;99.90;;;;;;6280873;22;20009;-92
2022/02/15 11:02:00;;;;;;;13.55;4.00;;;7.10;99.90;;;;;;6281107;22;20006;-90
2022/02/15 11:04:32;;;;;;;19.33;5.38;;;7.20;99.90;;;;;;6280751;22;20007;-92
2022/02/15 11:07:05;;;;;;;22.83;4.60;;;7.30;99.90;;;;;;6280074;22;20007;-90
2022/02/15 11:09:37;;;;;;;18.98;5.38;;;7.40;99.90;;;;;;6281351;22;20058;-93
2022/02/15 11:12:23;;;;;;;13.60;2.85;;;7.40;99.90;;;;;;6280746;22;20007;-92
2022/02/15 11:14:58;;;;;;;17.55;2.97;;;7.40;99.90;;;;;;6280447;22;19995;-91
2022/02/15 11:17:27;;;;;;;24.67;2.78;;;7.40;99.90;;;;;;6282121;22;20076;-92
2022/02/15 11:20:04;;;;;;;18.25;2.78;;;7.40;99.90;;;;;;6281731;22;20340;-92
2022/02/15 11:22:40;;;;;;;24.73;4.07;;;7.40;99.90;;;;;;6280086;22;20086;-92
2022/02/15 11:25:07;;;;;;;15.98;2.78;;;7.40;99.90;;;;;;6280902;22;20007;-93
2022/02/15 11:27:38;;;;;;;21.48;2.85;;;7.40;99.90;;;;;;6280377;22;20035;-92
2022/02/15 11:30:12;;;;;;;19.63;2.95;;;7.50;99.90;;;;;;6281319;22;19999;-91
2022/02/15 11:32:42;;;;;;;22.52;2.47;;;7.50;99.90;;;;;;6281486;22;20034;-91
2022/02/15 11:35:12;;;;;;;19.33;2.85;;;7.60;99.90;;;;;;6280673;22;20011;-92
2022/02/15 11:37:39;;;;;;;21.15;2.53;;;7.70;99.90;;;;;;6281492;22;20014;-92
2022/02/15 11:40:07;;;;;;;17.98;3.50;;;7.70;99.90;;;;;;6282071;22;20003;-92
2022/02/15 11:42:51;;;;;;;14.43;2.47;;;7.80;99.90;;;;;;6280359;22;20011;-92
2022/02/15 11:45:24;;;;;;;22.55;3.80;;;7.80;99.90;;;;;;6279743;22;20082;-93
2022/02/15 11:47:50;;;;;;;22.95;3.25;;;7.80;99.90;;;;;;6281124;22;20039;-93
2022/02/15 11:50:16;;;;;;;12.77;1.88;;;7.80;99.90;;;;;;6280497;22;20006;-94
2022/02/15 11:52:44;;;;;;;23.55;2.83;;;7.90;99.90;;;;;;6281086;22;20014;-93
2022/02/15 11:55:13;;;;;;;23.17;3.88;;;7.90;99.90;;;;;;6280579;22;20007;-92
2022/02/15 11:57:41;;;;;;;9.43;1.83;;;7.90;99.90;;;;;;6280057;22;20136;-93
2022/02/15 12:00:10;;;;;;;22.45;2.78;;;7.90;99.90;;;;;;6279940;22;20010;-91
2022/02/15 12:02:39;;;;;;;26.23;4.75;;;7.90;99.90;;;;;;6280799;22;20034;-93
2022/02/15 12:05:06;;;;;;;15.57;2.35;;;8.00;99.90;;;;;;6280026;22;20030;-92
2022/02/15 12:07:32;;;;;;;29.70;3.50;;;8.10;99.90;;;;;;6281198;22;20439;-90
2022/02/15 12:10:11;;;;;;;18.90;2.80;;;8.10;99.90;;;;;;6280959;22;20007;-91
2022/02/15 12:12:39;;;;;;;17.80;2.88;;;8.30;99.90;;;;;;6281492;22;20003;-92
2022/02/15 12:15:08;;;;;;;17.02;2.45;;;8.40;99.90;;;;;;6281190;22;19999;-91
2022/02/15 12:17:42;;;;;;;22.35;3.33;;;8.50;99.90;;;;;;6281588;22;20003;-91
2022/02/15 12:20:17;;;;;;;15.85;3.28;;;8.60;99.90;;;;;;6285326;22;20094;-88
2022/02/15 12:22:45;;;;;;;17.83;3.00;;;8.70;99.90;;;;;;6280918;22;19996;-90
2022/02/15 12:25:11;;;;;;;24.33;2.90;;;8.70;99.90;;;;;;6280832;22;20015;-90
2022/02/15 12:27:44;;;;;;;27.95;2.55;;;8.70;99.90;;;;;;6280224;22;20015;-90
2022/02/15 12:30:13;;;;;;;18.52;3.10;;;8.70;99.90;;;;;;6280738;22;20063;-92
2022/02/15 12:32:46;;;;;;;20.02;2.35;;;8.70;99.90;;;;;;6280418;22;20009;-91
2022/02/15 12:35:13;;;;;;;27.75;3.53;;;8.60;99.90;;;;;;6279867;22;20039;-91
2022/02/15 12:37:38;;;;;;;18.15;3.28;;;8.60;99.90;;;;;;6280296;22;20004;-90
2022/02/15 12:40:11;;;;;;;16.23;2.78;;;8.70;99.90;;;;;;6280770;22;20010;-90
2022/02/15 12:42:37;;;;;;;24.70;3.50;;;8.70;99.90;;;;;;6280993;22;20007;-90
2022/02/15 12:45:06;;;;;;;19.65;3.08;;;8.70;99.90;;;;;;6280749;22;20011;-91
2022/02/15 12:47:37;;;;;;;26.90;3.17;;;8.80;99.90;;;;;;6280438;22;20041;-89
2022/02/15 12:50:04;;;;;;;17.08;2.35;;;8.90;99.90;;;;;;6280236;22;20007;-89
2022/02/15 12:52:32;;;;;;;18.65;2.65;;;9.00;99.90;;;;;;6280320;22;20053;-91
2022/02/15 12:55:00;;;;;;;16.35;3.38;;;9.10;99.90;;;;;;6280723;22;20009;-90
2022/02/15 12:57:27;;;;;;;22.25;2.80;;;9.10;99.90;;;;;;6281157;22;20064;-90
2022/02/15 12:59:57;;;;;;;20.30;2.95;;;9.00;99.90;;;;;;6281403;22;20003;-89